Larkspur, Colorado
Current Conditions -  °F | °C
As of 10:55 AM on Friday 21 Nov 2014 (Local Time) from KMNH Reporting Station
Clear Clear  
Wind Chill: 45°   Ceiling: Unl
Heat Index: 45°   Visibility: 10mi
Dew Point: 12°   Wind: 3mph
Humidity: 27%   Direction: 330°NNW
Pressure: 29.98"   Gusts: NA
Location:  39.23°N, 104.89°W
Report Text: KMNH 211755Z AUTO 33003KT 10SM CLR 07/M11 A2998 RMK AO2
Loading
Personal Weather Stations






























Interactive Weather Map New forecast layout! Learn more

10-Day Weather Forecast

Advertisements
Track Severe Weather on mobile